Austin Straubel International, WI

1:13 AM CST on January 18, 2017 (GMT -0600)
Austin Straubel International | | Change Station
Active Advisory: Special Statement

Elev 692 ft 44.49 °N, 88.13 °W | Updated 20 minutes ago

Fog
Fog
35 °F
Feels Like 31 °F
N
5
Wind Variable Wind from WSW

Today
High -- | Low -- °F
--% Chance of Precip.
Yesterday
High -- | Low -- °F
Precip. -- in
Pressure 29.98 in
Visibility 0.5 miles
Clouds
Windchill 31 °F
Dew Point 34 °F
Humidity 96%
Rainfall 0.00 in
Snow Depth Not available.
7:23 AM 4:43 PM
Waning Gibbous, 66% visible
METAR KGRB 180653Z AUTO 24004KT 1/2SM FG VV002 02/01 A2995 RMK AO2 SLP150 T00170011 RVRNO
Pressure 29.98 in
Visibility 0.5 miles
Clouds
Windchill 31 °F
Dew Point 34 °F
Humidity 96%
Rainfall 0.00 in
Snow Depth Not available.
7:23 AM 4:43 PM
Waning Gibbous, 66% visible
METAR KGRB 180653Z AUTO 24004KT 1/2SM FG VV002 02/01 A2995 RMK AO2 SLP150 T00170011 RVRNO

Get Your Daily Forecast Email!

Thanks for signing up!

Be on the lookout for a verification email in your inbox.

You'll start receiving the daily forecast at 8 AM.

×

10-Day Weather Forecast

Almanac

Astronomy

Jan. 18, 2017 Rise Set
Actual Time
Civil Twilight
Nautical Twilight
Astronomical Twilight
Moon
Length of Visible Light
Length of Day
Tomorrow will be .
, % of the Moon is Illuminated

Today's Extremes

State Highs State Lows

Community

WunderPhotos

Upload Photos

1,962,540 photos uploaded!

WunderBlog® & News

Nearby

Air Quality

  Air Quality AQ Index Pollutant
Not available.

Snow Depth

Station Depth Elevation

Earthquake Activity

City Distance Mag. Time & Date
Minimum magnitude displayed is 2.5.

Coastal Water Temperatures

Place Temperature

Stations

Nearby Weather Stations

Station Location Temp. Windchill Dew Point Humidity Wind Precip. Elev Updated Type
                   

Watches & Warnings

Special Statement
Issued: 10:35 PM CST Jan. 17, 2017 – National Weather Service

... Areas of dense fog and slick roads tonight...

Clearing skies will allow temperatures to fall below freezing, and
for areas of dense fog to form overnight. Wet roads and sidewalks
will freeze and become slick, and areas of dense fog will reduce
visibility to less than a quarter mile at times. Please travel
with care tonight.


Rdm


1035 PM CST Tue Jan 17 2017

... Areas of dense fog and slick roads tonight...

Clearing skies will allow temperatures to fall below freezing, and
for areas of dense fog to form overnight. Wet roads and sidewalks
will freeze and become slick, and areas of dense fog will reduce
visibility to less than a quarter mile at times. Please travel
with care tonight.


Rdm


1035 PM CST Tue Jan 17 2017

... Areas of dense fog and slick roads tonight...

Clearing skies will allow temperatures to fall below freezing, and
for areas of dense fog to form overnight. Wet roads and sidewalks
will freeze and become slick, and areas of dense fog will reduce
visibility to less than a quarter mile at times. Please travel
with care tonight.


Rdm